North Hebron, New York
Current Conditions -  °F | °C
As of 10:53 AM on Wednesday 22 Oct 2014 (Local Time) from KGFL Reporting Station
Overcast Overcast  
Wind Chill: 51°   Ceiling: 2500
Heat Index: 51°   Visibility: 10mi
Dew Point: 44°   Wind: 9mph
Humidity: 77%   Direction: 10°N
Pressure: 30.13"   Gusts: NA
Location:  43.3389°N, 73.3194°W
Report Text: KGFL 221453Z AUTO 01008KT 10SM SCT020 OVC025 11/07 A3013 RMK AO2 SLP207 T01060067 51010
Loading
Personal Weather Stations






























Interactive Weather Map
Tropical Storm Tracking
New forecast layout! Learn more

10-Day Weather Forecast

Advertisements
Track Severe Weather on mobile